createdAt,value
2019-02-04T00:00:17.231Z,6.40
2019-02-04T00:02:46.801Z,6.40
2019-02-04T00:05:15.363Z,6.50
2019-02-04T00:07:43.848Z,7.10
2019-02-04T00:10:12.809Z,6.73
2019-02-04T00:12:41.469Z,4.53
2019-02-04T00:15:10.118Z,5.43
2019-02-04T00:17:38.815Z,4.93
2019-02-04T00:20:09.786Z,5.33
2019-02-04T00:22:38.517Z,5.60
2019-02-04T00:25:08.018Z,5.83
2019-02-04T00:27:36.505Z,12.23
2019-02-04T00:30:13.834Z,8.20
2019-02-04T00:32:42.301Z,8.77
2019-02-04T00:35:10.847Z,8.70
2019-02-04T00:37:39.279Z,10.47
2019-02-04T00:40:13.355Z,10.43
2019-02-04T00:42:41.975Z,8.67
2019-02-04T00:45:10.536Z,12.17
2019-02-04T00:47:38.981Z,12.77
2019-02-04T00:50:12.957Z,10.30
2019-02-04T00:52:41.388Z,8.47
2019-02-04T00:55:11.239Z,8.07
2019-02-04T00:57:40.239Z,8.10
2019-02-04T01:00:26.832Z,8.90
2019-02-04T01:02:56.120Z,7.77
2019-02-04T01:05:24.948Z,6.80
2019-02-04T01:07:53.510Z,6.97
2019-02-04T01:10:24.655Z,9.30
2019-02-04T01:12:53.435Z,9.27
2019-02-04T01:15:21.878Z,8.30
2019-02-04T01:17:50.436Z,8.30
2019-02-04T01:20:24.288Z,7.43
2019-02-04T01:22:53.466Z,9.63
2019-02-04T01:25:22.211Z,12.97
2019-02-04T01:27:50.959Z,10.90
2019-02-04T01:30:21.654Z,9.60
2019-02-04T01:32:50.106Z,9.90
2019-02-04T01:35:18.539Z,11.80
2019-02-04T01:37:47.309Z,11.97
2019-02-04T01:40:20.901Z,12.47
2019-02-04T01:42:49.579Z,31.47
2019-02-04T01:45:18.206Z,15.33
2019-02-04T01:47:46.664Z,16.87
2019-02-04T01:50:19.418Z,15.50
2019-02-04T01:52:47.843Z,14.33
2019-02-04T01:55:16.544Z,13.17
2019-02-04T01:57:47.333Z,12.90
2019-02-04T02:00:18.857Z,12.83
2019-02-04T02:02:47.336Z,12.40
2019-02-04T02:05:16.518Z,12.10
2019-02-04T02:07:45.116Z,10.10
2019-02-04T02:10:17.164Z,7.73
2019-02-04T02:12:45.850Z,10.17
2019-02-04T02:15:14.440Z,7.20
2019-02-04T02:17:42.930Z,10.60
2019-02-04T02:20:14.488Z,7.60
2019-02-04T02:22:43.215Z,8.43
2019-02-04T02:25:11.695Z,9.70
2019-02-04T02:27:40.199Z,9.57
2019-02-04T02:30:11.878Z,12.40
2019-02-04T02:32:40.606Z,13.20
2019-02-04T02:35:09.177Z,12.60
2019-02-04T02:37:37.590Z,15.00
2019-02-04T02:40:09.089Z,14.47
2019-02-04T02:42:37.558Z,15.27
2019-02-04T02:45:08.595Z,15.87
2019-02-04T02:47:38.707Z,14.00
2019-02-04T02:50:10.572Z,13.60
2019-02-04T02:52:38.990Z,12.80
2019-02-04T02:55:11.307Z,14.13
2019-02-04T02:57:39.734Z,13.00
2019-02-04T03:00:11.453Z,13.53
2019-02-04T03:02:39.885Z,13.37
2019-02-04T03:05:11.556Z,12.93
2019-02-04T03:07:40.134Z,13.30
2019-02-04T03:10:11.564Z,11.03
2019-02-04T03:12:39.989Z,11.53
2019-02-04T03:15:11.139Z,10.33
2019-02-04T03:17:51.113Z,13.10
2019-02-04T03:20:12.092Z,11.20
2019-02-04T03:22:40.599Z,12.10
2019-02-04T03:25:11.048Z,9.80
2019-02-04T03:27:39.930Z,11.10
2019-02-04T03:30:11.438Z,10.93
2019-02-04T03:32:39.995Z,8.73
2019-02-04T03:35:08.482Z,7.50
2019-02-04T03:37:37.001Z,7.23
2019-02-04T03:40:11.455Z,9.10
2019-02-04T03:42:39.941Z,9.40
2019-02-04T03:45:10.665Z,7.87
2019-02-04T03:47:39.512Z,8.97
2019-02-04T03:50:10.720Z,8.57
2019-02-04T03:52:39.193Z,9.40
2019-02-04T03:55:10.701Z,8.10
2019-02-04T03:57:39.695Z,10.80
2019-02-04T04:00:13.878Z,9.67
2019-02-04T04:02:42.369Z,9.07
2019-02-04T04:05:11.099Z,9.70
2019-02-04T04:07:39.681Z,8.93
2019-02-04T04:10:09.837Z,9.83
2019-02-04T04:12:38.407Z,9.00
2019-02-04T04:15:09.938Z,9.50
2019-02-04T04:17:38.424Z,9.20
2019-02-04T04:20:12.581Z,8.70
2019-02-04T04:22:41.200Z,9.50
2019-02-04T04:25:11.830Z,8.20
2019-02-04T04:27:40.313Z,9.20
2019-02-04T04:30:15.037Z,8.63
2019-02-04T04:32:43.540Z,9.17
2019-02-04T04:35:12.484Z,8.30
2019-02-04T04:37:40.977Z,6.80
2019-02-04T04:40:11.606Z,9.20
2019-02-04T04:42:40.159Z,8.30
2019-02-04T04:45:16.774Z,7.20
2019-02-04T04:47:45.313Z,8.60
2019-02-04T04:50:13.813Z,7.43
2019-02-04T04:52:42.457Z,7.03
2019-02-04T04:55:16.980Z,7.37
2019-02-04T04:57:45.620Z,9.10
2019-02-04T05:00:17.761Z,7.80
2019-02-04T05:02:46.354Z,8.27
2019-02-04T05:05:15.100Z,7.87
2019-02-04T05:07:43.825Z,7.60
2019-02-04T05:10:15.325Z,8.10
2019-02-04T05:12:43.818Z,7.90
2019-02-04T05:15:15.837Z,7.37
2019-02-04T05:17:44.340Z,7.80
2019-02-04T05:20:15.077Z,7.70
2019-02-04T05:22:43.560Z,7.43
2019-02-04T05:25:12.424Z,7.17
2019-02-04T05:27:41.053Z,7.43
2019-02-04T05:30:13.070Z,7.07
2019-02-04T05:32:41.570Z,6.90
2019-02-04T05:35:10.146Z,6.73
2019-02-04T05:37:38.714Z,8.50
2019-02-04T05:40:12.613Z,7.27
2019-02-04T05:42:41.117Z,6.80
2019-02-04T05:45:12.173Z,7.00
2019-02-04T05:47:40.702Z,5.13
2019-02-04T05:50:12.526Z,5.93
2019-02-04T05:52:41.158Z,5.80
2019-02-04T05:55:10.213Z,6.37
2019-02-04T05:57:39.032Z,5.93
2019-02-04T06:00:10.690Z,5.20
2019-02-04T06:02:39.182Z,5.63
2019-02-04T06:05:10.416Z,13.20
2019-02-04T06:07:38.862Z,6.23
2019-02-04T06:10:10.062Z,6.30
2019-02-04T06:12:38.759Z,6.57
2019-02-04T06:15:12.514Z,5.93
2019-02-04T06:17:40.938Z,6.53
2019-02-04T06:20:18.456Z,5.33
2019-02-04T06:22:46.873Z,6.30
2019-02-04T06:25:15.511Z,7.30
2019-02-04T06:27:44.060Z,6.20
2019-02-04T06:30:14.807Z,6.33
2019-02-04T06:32:43.382Z,6.77
2019-02-04T06:35:12.909Z,7.63
2019-02-04T06:37:41.614Z,6.43
2019-02-04T06:40:12.921Z,7.20
2019-02-04T06:42:41.434Z,5.40
2019-02-04T06:45:17.882Z,5.60
2019-02-04T06:47:46.713Z,7.20
2019-02-04T06:50:17.122Z,6.60
2019-02-04T06:52:45.683Z,6.50
2019-02-04T06:55:25.994Z,6.50
2019-02-04T06:57:54.585Z,6.23
2019-02-04T07:00:23.111Z,6.03
2019-02-04T07:02:51.662Z,5.50
2019-02-04T07:05:20.370Z,5.33
2019-02-04T07:07:48.778Z,5.77
2019-02-04T07:10:19.579Z,5.10
2019-02-04T07:12:48.178Z,5.10
2019-02-04T07:15:16.717Z,5.13
2019-02-04T07:17:45.270Z,5.00
2019-02-04T07:20:19.904Z,5.67
2019-02-04T07:22:48.511Z,5.73
2019-02-04T07:25:18.737Z,4.10
2019-02-04T07:27:47.171Z,4.40
2019-02-04T07:30:18.295Z,4.90
2019-02-04T07:32:46.872Z,4.40
2019-02-04T07:35:17.251Z,4.40
2019-02-04T07:37:45.798Z,5.03
2019-02-04T07:40:17.412Z,4.07
2019-02-04T07:42:45.992Z,4.33
2019-02-04T07:45:15.028Z,5.60
2019-02-04T07:47:43.702Z,4.87
2019-02-04T07:50:12.301Z,3.77
2019-02-04T07:52:40.874Z,5.10
2019-02-04T07:55:12.185Z,4.47
2019-02-04T07:57:40.603Z,4.30
2019-02-04T08:00:17.342Z,3.93
2019-02-04T08:02:46.333Z,3.43
2019-02-04T08:05:14.769Z,3.33
2019-02-04T08:07:43.198Z,2.87
2019-02-04T08:10:14.021Z,2.93
2019-02-04T08:12:42.545Z,3.07
2019-02-04T08:15:25.747Z,3.10
2019-02-04T08:17:54.900Z,3.30
2019-02-04T08:20:23.385Z,3.63
2019-02-04T08:22:51.799Z,3.57
2019-02-04T08:25:20.389Z,2.57
2019-02-04T08:27:48.809Z,2.63
2019-02-04T08:30:23.671Z,3.73
2019-02-04T08:32:52.090Z,3.70
2019-02-04T08:35:20.574Z,2.63
2019-02-04T08:37:49.077Z,3.70
2019-02-04T08:40:18.730Z,2.70
2019-02-04T08:42:47.240Z,2.70
2019-02-04T08:45:16.388Z,2.87
2019-02-04T08:47:45.112Z,2.57
2019-02-04T08:50:17.012Z,2.60
2019-02-04T08:52:45.567Z,2.73
2019-02-04T08:55:14.157Z,2.73
2019-02-04T08:57:42.668Z,2.17
2019-02-04T09:00:14.764Z,2.97
2019-02-04T09:02:43.175Z,2.80
2019-02-04T09:05:14.223Z,2.57
2019-02-04T09:07:43.251Z,3.00
2019-02-04T09:10:15.168Z,3.00
2019-02-04T09:12:43.573Z,3.53
2019-02-04T09:15:16.342Z,2.70
2019-02-04T09:17:44.731Z,3.17
2019-02-04T09:20:15.830Z,2.00
2019-02-04T09:22:44.770Z,2.50
2019-02-04T09:25:15.532Z,2.73
2019-02-04T09:27:44.018Z,2.40
2019-02-04T09:30:20.987Z,2.80
2019-02-04T09:32:49.466Z,2.67
2019-02-04T09:35:19.693Z,2.60
2019-02-04T09:37:48.422Z,2.37
2019-02-04T09:40:25.147Z,2.87
2019-02-04T09:42:53.558Z,2.70
2019-02-04T09:45:25.230Z,1.73
2019-02-04T09:47:52.113Z,2.20
2019-02-04T09:50:23.313Z,1.90
2019-02-04T09:52:51.883Z,1.70
2019-02-04T09:55:25.707Z,2.17
2019-02-04T09:57:54.306Z,1.50
2019-02-04T10:00:25.149Z,2.33
2019-02-04T10:02:53.648Z,2.10
2019-02-04T10:05:22.839Z,1.80
2019-02-04T10:07:51.302Z,2.43
2019-02-04T10:10:22.753Z,2.00
2019-02-04T10:12:52.607Z,2.57
2019-02-04T10:15:32.925Z,2.23
2019-02-04T10:18:01.452Z,2.13
2019-02-04T10:20:34.115Z,2.10
2019-02-04T10:23:00.252Z,2.70
2019-02-04T10:25:31.028Z,1.70
2019-02-04T10:27:59.919Z,2.13
2019-02-04T10:30:28.358Z,2.10
2019-02-04T10:32:56.889Z,1.73
2019-02-04T10:35:25.727Z,2.23
2019-02-04T10:37:54.172Z,2.00
2019-02-04T10:40:30.257Z,2.20
2019-02-04T10:42:58.917Z,2.20
2019-02-04T10:45:27.506Z,2.67
2019-02-04T10:47:56.314Z,2.20
2019-02-04T10:50:28.162Z,2.53
2019-02-04T10:52:56.959Z,2.27
2019-02-04T10:55:25.905Z,2.60
2019-02-04T10:57:54.573Z,2.20
2019-02-04T11:00:29.311Z,2.60
2019-02-04T11:02:58.221Z,2.57
2019-02-04T11:05:29.386Z,2.97
2019-02-04T11:07:57.881Z,3.23
2019-02-04T11:10:30.222Z,2.93
2019-02-04T11:12:58.882Z,3.50
2019-02-04T11:15:27.344Z,3.30
2019-02-04T11:17:56.119Z,3.83
2019-02-04T11:20:27.440Z,2.77
2019-02-04T11:22:55.929Z,2.27
2019-02-04T11:25:24.447Z,2.70
2019-02-04T11:27:52.928Z,2.57
2019-02-04T11:30:42.713Z,2.73
2019-02-04T11:33:11.265Z,3.00
2019-02-04T11:35:39.913Z,2.70
2019-02-04T11:38:08.964Z,2.47
2019-02-04T11:40:39.420Z,3.00
2019-02-04T11:43:08.853Z,2.27
2019-02-04T11:45:37.645Z,2.33
2019-02-04T11:48:08.708Z,2.60
2019-02-04T11:50:37.219Z,3.00
2019-02-04T11:53:05.782Z,2.63
2019-02-04T11:55:35.169Z,2.87
2019-02-04T11:58:04.236Z,2.80
2019-02-04T12:00:33.378Z,3.50
2019-02-04T12:03:03.933Z,2.63
2019-02-04T12:05:32.354Z,2.60
2019-02-04T12:08:00.775Z,2.90
2019-02-04T12:10:42.886Z,3.83
2019-02-04T12:13:11.069Z,2.83
2019-02-04T12:15:40.141Z,2.63
2019-02-04T12:18:08.713Z,2.90
2019-02-04T12:20:39.872Z,2.93
2019-02-04T12:23:07.360Z,3.00
2019-02-04T12:25:37.129Z,2.90
2019-02-04T12:28:05.778Z,3.57
2019-02-04T12:30:42.466Z,2.40
2019-02-04T12:33:13.591Z,2.43
2019-02-04T12:35:42.038Z,2.60
2019-02-04T12:38:10.586Z,3.07
2019-02-04T12:40:39.210Z,2.73
2019-02-04T12:43:07.673Z,2.53
2019-02-04T12:45:38.028Z,2.33
2019-02-04T12:48:06.677Z,3.17
2019-02-04T12:50:35.443Z,2.70
2019-02-04T12:53:04.724Z,2.83
2019-02-04T12:55:33.610Z,2.67
2019-02-04T12:58:02.014Z,2.50
2019-02-04T13:00:31.700Z,3.30
2019-02-04T13:03:00.127Z,2.67
2019-02-04T13:05:36.888Z,2.73
2019-02-04T13:08:07.344Z,2.57
2019-02-04T13:10:35.779Z,3.23
2019-02-04T13:13:05.134Z,2.50
2019-02-04T13:15:33.541Z,2.43
2019-02-04T13:18:01.954Z,2.87
2019-02-04T13:20:30.435Z,3.50
2019-02-04T13:22:59.133Z,3.23
2019-02-04T13:25:29.455Z,2.47
2019-02-04T13:27:58.174Z,2.90
2019-02-04T13:30:30.528Z,2.70
2019-02-04T13:32:59.082Z,2.97
2019-02-04T13:35:30.577Z,2.53
2019-02-04T13:37:57.821Z,3.03
2019-02-04T13:40:29.306Z,3.30
2019-02-04T13:42:58.005Z,3.03
2019-02-04T13:45:27.484Z,2.73
2019-02-04T13:47:56.033Z,3.27
2019-02-04T13:50:24.523Z,2.90
2019-02-04T13:52:53.527Z,3.33
2019-02-04T13:55:33.373Z,3.00
2019-02-04T13:58:01.834Z,3.43
2019-02-04T14:00:30.558Z,3.10
2019-02-04T14:03:00.721Z,3.03
2019-02-04T14:05:31.514Z,2.77
2019-02-04T14:08:00.474Z,2.93
2019-02-04T14:10:31.793Z,2.57
2019-02-04T14:13:00.227Z,2.60
2019-02-04T14:15:29.308Z,3.00
2019-02-04T14:17:58.012Z,3.17
2019-02-04T14:20:27.057Z,2.47
2019-02-04T14:22:55.871Z,2.50
2019-02-04T14:25:24.591Z,2.90
2019-02-04T14:27:54.019Z,2.73
2019-02-04T14:30:36.818Z,2.80
2019-02-04T14:33:06.111Z,2.80
2019-02-04T14:35:34.836Z,2.23
2019-02-04T14:38:04.581Z,2.60
2019-02-04T14:40:33.001Z,2.60
2019-02-04T14:43:06.981Z,3.43
2019-02-04T14:45:44.211Z,3.10
2019-02-04T14:48:15.697Z,2.60
2019-02-04T14:50:49.825Z,2.87
2019-02-04T14:53:30.190Z,3.13
2019-02-04T14:56:10.513Z,2.80
2019-02-04T14:58:44.785Z,2.77
2019-02-04T15:01:27.771Z,2.60
2019-02-04T15:04:11.091Z,2.60
2019-02-04T15:06:45.253Z,2.93
2019-02-04T15:09:33.137Z,3.10
2019-02-04T15:12:26.594Z,2.83
2019-02-04T15:15:12.550Z,3.30
2019-02-04T15:17:44.148Z,3.10
2019-02-04T15:20:15.626Z,3.50
2019-02-04T15:23:05.058Z,3.33
2019-02-04T15:25:52.832Z,2.80
2019-02-04T15:28:35.909Z,3.03
2019-02-04T15:31:12.322Z,2.70
2019-02-04T15:33:46.634Z,3.10
2019-02-04T15:36:36.353Z,2.93
2019-02-04T15:39:22.466Z,3.10
2019-02-04T15:42:02.788Z,3.40
2019-02-04T15:44:43.115Z,3.40
2019-02-04T15:47:23.274Z,3.20
2019-02-04T15:49:57.341Z,2.60
2019-02-04T15:52:25.834Z,3.43
2019-02-04T15:54:54.260Z,3.30
2019-02-04T15:57:22.855Z,2.63
2019-02-04T15:59:51.343Z,3.30
2019-02-04T16:02:19.756Z,3.90
2019-02-04T16:04:48.165Z,3.63
2019-02-04T16:07:16.589Z,4.00
2019-02-04T16:09:45.030Z,3.40
2019-02-04T16:12:13.717Z,3.37
2019-02-04T16:14:42.396Z,2.63
2019-02-04T16:17:11.610Z,4.10
2019-02-04T16:19:40.089Z,3.37
2019-02-04T16:22:08.583Z,3.53
2019-02-04T16:24:37.132Z,3.00
2019-02-04T16:27:05.690Z,3.20
2019-02-04T16:29:34.125Z,3.30
2019-02-04T16:32:02.618Z,3.97
2019-02-04T16:34:31.048Z,3.80
2019-02-04T16:36:59.491Z,3.33
2019-02-04T16:39:27.932Z,2.93
2019-02-04T16:41:56.345Z,3.03
2019-02-04T16:44:25.142Z,3.33
2019-02-04T16:46:54.692Z,3.60
2019-02-04T16:49:23.250Z,3.10
2019-02-04T16:51:51.663Z,4.33
2019-02-04T16:54:20.144Z,3.10
2019-02-04T16:56:48.561Z,3.13
2019-02-04T16:59:17.361Z,3.30
2019-02-04T17:01:45.781Z,3.20
2019-02-04T17:04:14.197Z,3.20
2019-02-04T17:06:42.785Z,3.43
2019-02-04T17:09:12.204Z,3.33
2019-02-04T17:11:40.630Z,3.07
2019-02-04T17:14:09.054Z,3.70
2019-02-04T17:16:37.653Z,2.53
2019-02-04T17:19:06.189Z,4.17
2019-02-04T17:21:34.605Z,4.30
2019-02-04T17:24:03.090Z,3.77
2019-02-04T17:26:31.510Z,4.63
2019-02-04T17:28:59.928Z,3.20
2019-02-04T17:31:28.747Z,3.90
2019-02-04T17:33:57.168Z,3.90
2019-02-04T17:36:25.652Z,4.00
2019-02-04T17:38:54.098Z,3.60
2019-02-04T17:41:22.577Z,3.23
2019-02-04T17:43:50.989Z,4.23
2019-02-04T17:46:19.409Z,4.37
2019-02-04T17:48:47.822Z,3.80
2019-02-04T17:51:16.334Z,3.63
2019-02-04T17:53:44.754Z,4.10
2019-02-04T17:56:13.244Z,4.50
2019-02-04T17:58:41.704Z,3.60
2019-02-04T18:01:10.182Z,4.17
2019-02-04T18:03:38.974Z,4.87
2019-02-04T18:06:07.401Z,3.97
2019-02-04T18:08:35.809Z,4.23
2019-02-04T18:11:04.369Z,3.53
2019-02-04T18:13:32.821Z,3.83
2019-02-04T18:16:01.240Z,4.27
2019-02-04T18:18:30.075Z,3.43
2019-02-04T18:20:58.508Z,3.77
2019-02-04T18:23:26.926Z,3.77
2019-02-04T18:25:55.343Z,3.73
2019-02-04T18:28:23.837Z,3.87
2019-02-04T18:30:52.301Z,4.00
2019-02-04T18:33:20.782Z,3.80
2019-02-04T18:35:49.265Z,3.67
2019-02-04T18:38:17.706Z,3.50
2019-02-04T18:40:46.516Z,3.23
2019-02-04T18:43:14.943Z,4.50
2019-02-04T18:45:43.434Z,3.53
2019-02-04T18:48:11.949Z,4.30
2019-02-04T18:50:40.743Z,4.33
2019-02-04T18:53:09.161Z,4.30
2019-02-04T18:55:37.573Z,4.80
2019-02-04T18:58:06.007Z,4.37
2019-02-04T19:00:34.522Z,4.57
2019-02-04T19:03:16.577Z,3.70
2019-02-04T19:05:34.726Z,4.90
2019-02-04T19:08:03.214Z,4.50
2019-02-04T19:10:31.666Z,4.30
2019-02-04T19:13:00.129Z,4.07
2019-02-04T19:15:29.297Z,5.20
2019-02-04T19:18:04.145Z,3.70
2019-02-04T19:20:33.297Z,4.40
2019-02-04T19:23:01.730Z,3.77
2019-02-04T19:25:30.379Z,5.03
2019-02-04T19:27:58.920Z,4.07
2019-02-04T19:30:47.849Z,6.00
2019-02-04T19:33:16.279Z,4.03
2019-02-04T19:35:44.736Z,4.17
2019-02-04T19:38:13.220Z,5.80
2019-02-04T19:40:41.647Z,4.93
2019-02-04T19:43:10.065Z,5.07
2019-02-04T19:45:38.481Z,3.97
2019-02-04T19:48:06.993Z,5.77
2019-02-04T19:50:37.042Z,4.70
2019-02-04T19:53:05.709Z,4.30
2019-02-04T19:55:34.182Z,4.20
2019-02-04T19:58:02.604Z,4.70
2019-02-04T20:00:31.409Z,4.23
2019-02-04T20:02:59.825Z,4.90
2019-02-04T20:05:29.958Z,3.80
2019-02-04T20:07:58.537Z,3.77
2019-02-04T20:10:29.849Z,3.90
2019-02-04T20:12:58.266Z,4.27
2019-02-04T20:15:28.715Z,4.57
2019-02-04T20:17:57.249Z,4.17
2019-02-04T20:20:26.404Z,5.03
2019-02-04T20:22:55.051Z,4.77
2019-02-04T20:25:31.246Z,3.93
2019-02-04T20:27:59.945Z,3.50
2019-02-04T20:30:45.798Z,3.90
2019-02-04T20:33:10.755Z,3.90
2019-02-04T20:35:39.322Z,4.10
2019-02-04T20:38:08.786Z,3.80
2019-02-04T20:40:37.360Z,4.07
2019-02-04T20:43:07.107Z,4.07
2019-02-04T20:45:35.644Z,3.63
2019-02-04T20:48:05.202Z,4.23
2019-02-04T20:50:42.017Z,3.10
2019-02-04T20:53:10.480Z,3.13
2019-02-04T20:55:39.368Z,3.37
2019-02-04T20:58:07.893Z,3.10
2019-02-04T21:00:36.314Z,3.60
2019-02-04T21:03:05.073Z,3.43
2019-02-04T21:05:33.570Z,3.33
2019-02-04T21:08:02.065Z,3.77
2019-02-04T21:10:30.914Z,3.80
2019-02-04T21:12:59.503Z,3.30
2019-02-04T21:15:28.149Z,3.50
2019-02-04T21:17:56.570Z,2.70
2019-02-04T21:20:29.233Z,3.23
2019-02-04T21:22:57.723Z,3.43
2019-02-04T21:25:26.177Z,3.73
2019-02-04T21:27:54.702Z,2.73
2019-02-04T21:30:25.058Z,3.50
2019-02-04T21:32:53.479Z,3.03
2019-02-04T21:35:22.124Z,3.57
2019-02-04T21:37:50.585Z,3.73
2019-02-04T21:40:19.738Z,3.03
2019-02-04T21:42:48.605Z,8.70
2019-02-04T21:45:19.261Z,3.30
2019-02-04T21:47:47.927Z,3.43
2019-02-04T21:50:18.846Z,3.47
2019-02-04T21:52:47.333Z,3.17
2019-02-04T21:55:16.091Z,3.43
2019-02-04T21:57:44.986Z,2.80
2019-02-04T22:00:16.482Z,3.23
2019-02-04T22:02:44.897Z,3.03
2019-02-04T22:05:16.133Z,2.63
2019-02-04T22:07:44.546Z,3.47
2019-02-04T22:10:18.126Z,4.23
2019-02-04T22:12:46.853Z,3.03
2019-02-04T22:15:15.369Z,3.07
2019-02-04T22:17:44.911Z,4.23
2019-02-04T22:20:18.019Z,2.30
2019-02-04T22:22:46.434Z,2.80
2019-02-04T22:25:19.690Z,3.33
2019-02-04T22:27:48.665Z,2.80
2019-02-04T22:30:18.965Z,2.50
2019-02-04T22:32:47.391Z,2.97
2019-02-04T22:35:15.870Z,2.80
2019-02-04T22:37:44.412Z,2.70
2019-02-04T22:40:21.221Z,2.50
2019-02-04T22:42:50.033Z,2.13
2019-02-04T22:45:19.147Z,2.27
2019-02-04T22:47:47.557Z,2.00
2019-02-04T22:50:27.303Z,1.70
2019-02-04T22:52:55.882Z,2.30
2019-02-04T22:55:31.680Z,2.50
2019-02-04T22:57:54.698Z,2.30
2019-02-04T23:00:48.961Z,2.37
2019-02-04T23:03:20.049Z,2.43
2019-02-04T23:05:48.546Z,1.90
2019-02-04T23:08:16.981Z,2.50
2019-02-04T23:10:45.421Z,2.70
2019-02-04T23:13:13.861Z,2.10
2019-02-04T23:15:42.418Z,2.00
2019-02-04T23:18:11.301Z,2.00
2019-02-04T23:20:39.852Z,2.57
2019-02-04T23:23:08.323Z,2.10
2019-02-04T23:25:43.527Z,2.23
2019-02-04T23:28:06.892Z,2.40
2019-02-04T23:30:35.349Z,2.43
2019-02-04T23:33:04.725Z,2.30
2019-02-04T23:35:33.204Z,2.33
2019-02-04T23:38:01.617Z,1.90
2019-02-04T23:40:30.085Z,2.13
2019-02-04T23:42:58.492Z,2.40
2019-02-04T23:45:26.922Z,2.70
2019-02-04T23:47:55.438Z,2.13
2019-02-04T23:50:24.042Z,2.40
2019-02-04T23:52:52.515Z,2.63
2019-02-04T23:55:20.987Z,2.90
2019-02-04T23:57:49.421Z,2.83
